sensor_id;sensor_type;location;lat;lon;timestamp;P1;durP1;ratioP1;P2;durP2;ratioP2
66739;SDS011;53653;52.188;8.602;2023-03-23T00:01:16;12.93;;;4.50;;
66739;SDS011;53653;52.188;8.602;2023-03-23T00:03:45;7.32;;;3.45;;
66739;SDS011;53653;52.188;8.602;2023-03-23T00:06:15;9.18;;;3.90;;
66739;SDS011;53653;52.188;8.602;2023-03-23T00:08:42;8.77;;;4.22;;
66739;SDS011;53653;52.188;8.602;2023-03-23T00:11:13;8.50;;;3.27;;
66739;SDS011;53653;52.188;8.602;2023-03-23T00:13:45;13.20;;;4.15;;
66739;SDS011;53653;52.188;8.602;2023-03-23T00:16:12;10.73;;;4.35;;
66739;SDS011;53653;52.188;8.602;2023-03-23T00:18:45;11.77;;;4.60;;
66739;SDS011;53653;52.188;8.602;2023-03-23T00:21:10;9.63;;;4.00;;
66739;SDS011;53653;52.188;8.602;2023-03-23T00:23:36;9.70;;;4.33;;
66739;SDS011;53653;52.188;8.602;2023-03-23T00:26:03;10.90;;;4.80;;
66739;SDS011;53653;52.188;8.602;2023-03-23T00:28:29;10.37;;;4.47;;
66739;SDS011;53653;52.188;8.602;2023-03-23T00:30:58;11.20;;;4.15;;
66739;SDS011;53653;52.188;8.602;2023-03-23T00:33:27;9.17;;;3.87;;
66739;SDS011;53653;52.188;8.602;2023-03-23T00:35:54;10.15;;;3.72;;
66739;SDS011;53653;52.188;8.602;2023-03-23T00:38:23;10.98;;;4.28;;
66739;SDS011;53653;52.188;8.602;2023-03-23T00:40:49;9.70;;;4.22;;
66739;SDS011;53653;52.188;8.602;2023-03-23T00:43:17;9.05;;;4.18;;
66739;SDS011;53653;52.188;8.602;2023-03-23T00:45:44;11.13;;;3.77;;
66739;SDS011;53653;52.188;8.602;2023-03-23T00:48:14;11.27;;;3.80;;
66739;SDS011;53653;52.188;8.602;2023-03-23T00:50:41;11.68;;;3.85;;
66739;SDS011;53653;52.188;8.602;2023-03-23T00:53:07;9.40;;;4.03;;
66739;SDS011;53653;52.188;8.602;2023-03-23T00:55:32;7.30;;;2.93;;
66739;SDS011;53653;52.188;8.602;2023-03-23T00:57:59;10.15;;;4.18;;
66739;SDS011;53653;52.188;8.602;2023-03-23T01:00:24;11.17;;;3.57;;
66739;SDS011;53653;52.188;8.602;2023-03-23T01:02:52;10.38;;;4.00;;
66739;SDS011;53653;52.188;8.602;2023-03-23T01:05:18;10.15;;;4.10;;
66739;SDS011;53653;52.188;8.602;2023-03-23T01:07:44;11.63;;;4.60;;
66739;SDS011;53653;52.188;8.602;2023-03-23T01:10:10;9.37;;;3.33;;
66739;SDS011;53653;52.188;8.602;2023-03-23T01:12:45;11.40;;;4.30;;
66739;SDS011;53653;52.188;8.602;2023-03-23T01:15:15;9.40;;;3.90;;
66739;SDS011;53653;52.188;8.602;2023-03-23T01:17:42;11.15;;;3.75;;
66739;SDS011;53653;52.188;8.602;2023-03-23T01:20:09;11.77;;;4.15;;
66739;SDS011;53653;52.188;8.602;2023-03-23T01:22:36;8.10;;;3.53;;
66739;SDS011;53653;52.188;8.602;2023-03-23T01:25:02;10.45;;;3.90;;
66739;SDS011;53653;52.188;8.602;2023-03-23T01:27:27;10.45;;;4.00;;
66739;SDS011;53653;52.188;8.602;2023-03-23T01:29:53;11.77;;;3.80;;
66739;SDS011;53653;52.188;8.602;2023-03-23T01:32:18;7.57;;;3.57;;
66739;SDS011;53653;52.188;8.602;2023-03-23T01:34:44;7.70;;;3.47;;
66739;SDS011;53653;52.188;8.602;2023-03-23T01:37:11;9.05;;;3.50;;
66739;SDS011;53653;52.188;8.602;2023-03-23T01:39:36;9.27;;;3.13;;
66739;SDS011;53653;52.188;8.602;2023-03-23T01:42:03;9.30;;;3.72;;
66739;SDS011;53653;52.188;8.602;2023-03-23T01:47:06;7.93;;;2.53;;
66739;SDS011;53653;52.188;8.602;2023-03-23T01:49:39;7.55;;;3.00;;
66739;SDS011;53653;52.188;8.602;2023-03-23T01:52:13;9.00;;;3.40;;
66739;SDS011;53653;52.188;8.602;2023-03-23T01:54:48;10.27;;;3.70;;
66739;SDS011;53653;52.188;8.602;2023-03-23T01:57:16;10.05;;;3.13;;
66739;SDS011;53653;52.188;8.602;2023-03-23T01:59:45;7.90;;;3.37;;
66739;SDS011;53653;52.188;8.602;2023-03-23T02:02:37;9.23;;;3.58;;
66739;SDS011;53653;52.188;8.602;2023-03-23T02:05:06;8.55;;;3.28;;
66739;SDS011;53653;52.188;8.602;2023-03-23T02:07:36;7.78;;;3.20;;
66739;SDS011;53653;52.188;8.602;2023-03-23T02:10:03;7.90;;;3.20;;
66739;SDS011;53653;52.188;8.602;2023-03-23T02:12:32;9.17;;;3.23;;
66739;SDS011;53653;52.188;8.602;2023-03-23T02:14:58;8.30;;;3.25;;
66739;SDS011;53653;52.188;8.602;2023-03-23T02:17:29;8.63;;;3.20;;
66739;SDS011;53653;52.188;8.602;2023-03-23T02:23:20;8.18;;;3.00;;
66739;SDS011;53653;52.188;8.602;2023-03-23T02:34:12;7.07;;;3.05;;
66739;SDS011;53653;52.188;8.602;2023-03-23T02:37:14;7.03;;;2.78;;
66739;SDS011;53653;52.188;8.602;2023-03-23T02:39:50;9.13;;;3.00;;
66739;SDS011;53653;52.188;8.602;2023-03-23T02:42:21;9.48;;;2.85;;
66739;SDS011;53653;52.188;8.602;2023-03-23T02:44:51;8.10;;;3.20;;
66739;SDS011;53653;52.188;8.602;2023-03-23T02:47:21;7.78;;;3.00;;
66739;SDS011;53653;52.188;8.602;2023-03-23T02:49:49;8.10;;;2.95;;
66739;SDS011;53653;52.188;8.602;2023-03-23T02:52:22;6.90;;;2.50;;
66739;SDS011;53653;52.188;8.602;2023-03-23T02:55:02;10.25;;;2.50;;
66739;SDS011;53653;52.188;8.602;2023-03-23T02:57:29;8.20;;;2.37;;
66739;SDS011;53653;52.188;8.602;2023-03-23T02:59:58;6.05;;;1.90;;
66739;SDS011;53653;52.188;8.602;2023-03-23T03:02:28;6.93;;;2.10;;
66739;SDS011;53653;52.188;8.602;2023-03-23T03:07:46;6.10;;;2.10;;
66739;SDS011;53653;52.188;8.602;2023-03-23T03:10:25;8.07;;;2.33;;
66739;SDS011;53653;52.188;8.602;2023-03-23T03:15:57;6.53;;;1.73;;
66739;SDS011;53653;52.188;8.602;2023-03-23T03:18:38;5.93;;;2.20;;
66739;SDS011;53653;52.188;8.602;2023-03-23T03:21:13;7.13;;;2.25;;
66739;SDS011;53653;52.188;8.602;2023-03-23T03:23:43;13.38;;;2.40;;
66739;SDS011;53653;52.188;8.602;2023-03-23T03:26:11;8.65;;;2.40;;
66739;SDS011;53653;52.188;8.602;2023-03-23T03:28:47;7.60;;;2.47;;
66739;SDS011;53653;52.188;8.602;2023-03-23T03:31:17;7.00;;;2.17;;
66739;SDS011;53653;52.188;8.602;2023-03-23T03:33:51;6.70;;;2.08;;
66739;SDS011;53653;52.188;8.602;2023-03-23T03:36:21;5.65;;;1.73;;
66739;SDS011;53653;52.188;8.602;2023-03-23T03:38:51;5.07;;;1.90;;
66739;SDS011;53653;52.188;8.602;2023-03-23T03:41:19;6.20;;;2.03;;
66739;SDS011;53653;52.188;8.602;2023-03-23T03:43:45;5.32;;;2.00;;
66739;SDS011;53653;52.188;8.602;2023-03-23T03:46:11;6.40;;;1.90;;
66739;SDS011;53653;52.188;8.602;2023-03-23T03:48:37;9.27;;;2.10;;
66739;SDS011;53653;52.188;8.602;2023-03-23T03:51:03;5.93;;;2.20;;
66739;SDS011;53653;52.188;8.602;2023-03-23T03:53:31;7.30;;;2.20;;
66739;SDS011;53653;52.188;8.602;2023-03-23T03:55:57;7.00;;;2.22;;
66739;SDS011;53653;52.188;8.602;2023-03-23T03:58:25;5.82;;;1.67;;
66739;SDS011;53653;52.188;8.602;2023-03-23T04:01:06;7.25;;;1.80;;
66739;SDS011;53653;52.188;8.602;2023-03-23T04:03:36;4.73;;;1.77;;
66739;SDS011;53653;52.188;8.602;2023-03-23T04:06:05;7.07;;;2.00;;
66739;SDS011;53653;52.188;8.602;2023-03-23T04:08:32;5.25;;;1.80;;
66739;SDS011;53653;52.188;8.602;2023-03-23T04:10:58;5.37;;;1.90;;
66739;SDS011;53653;52.188;8.602;2023-03-23T04:13:24;8.10;;;2.25;;
66739;SDS011;53653;52.188;8.602;2023-03-23T04:16:14;7.20;;;2.67;;
66739;SDS011;53653;52.188;8.602;2023-03-23T04:18:41;6.18;;;2.13;;
66739;SDS011;53653;52.188;8.602;2023-03-23T04:21:08;6.47;;;2.13;;
66739;SDS011;53653;52.188;8.602;2023-03-23T04:23:34;5.53;;;2.20;;
66739;SDS011;53653;52.188;8.602;2023-03-23T04:26:02;5.00;;;1.80;;
66739;SDS011;53653;52.188;8.602;2023-03-23T04:28:34;5.88;;;2.00;;
66739;SDS011;53653;52.188;8.602;2023-03-23T04:31:34;6.82;;;2.42;;
66739;SDS011;53653;52.188;8.602;2023-03-23T04:34:12;5.73;;;1.90;;
66739;SDS011;53653;52.188;8.602;2023-03-23T04:36:45;6.53;;;2.05;;
66739;SDS011;53653;52.188;8.602;2023-03-23T04:39:18;5.97;;;2.28;;
66739;SDS011;53653;52.188;8.602;2023-03-23T04:41:45;6.28;;;1.85;;
66739;SDS011;53653;52.188;8.602;2023-03-23T04:44:31;6.45;;;2.20;;
66739;SDS011;53653;52.188;8.602;2023-03-23T04:47:06;7.17;;;2.40;;
66739;SDS011;53653;52.188;8.602;2023-03-23T04:49:36;6.28;;;2.05;;
66739;SDS011;53653;52.188;8.602;2023-03-23T04:52:26;4.93;;;1.73;;
66739;SDS011;53653;52.188;8.602;2023-03-23T04:54:56;4.53;;;1.60;;
66739;SDS011;53653;52.188;8.602;2023-03-23T04:57:22;6.22;;;2.08;;
66739;SDS011;53653;52.188;8.602;2023-03-23T05:00:11;6.10;;;2.07;;
66739;SDS011;53653;52.188;8.602;2023-03-23T05:02:42;8.18;;;2.20;;
66739;SDS011;53653;52.188;8.602;2023-03-23T05:05:09;5.78;;;1.92;;
66739;SDS011;53653;52.188;8.602;2023-03-23T05:07:37;5.50;;;2.13;;
66739;SDS011;53653;52.188;8.602;2023-03-23T05:10:04;8.35;;;1.98;;
66739;SDS011;53653;52.188;8.602;2023-03-23T05:12:33;6.50;;;2.00;;
66739;SDS011;53653;52.188;8.602;2023-03-23T05:15:04;5.97;;;2.30;;
66739;SDS011;53653;52.188;8.602;2023-03-23T05:17:33;5.80;;;1.98;;
66739;SDS011;53653;52.188;8.602;2023-03-23T05:20:02;6.50;;;2.38;;
66739;SDS011;53653;52.188;8.602;2023-03-23T05:22:37;4.80;;;1.58;;
66739;SDS011;53653;52.188;8.602;2023-03-23T05:25:05;5.87;;;1.83;;
66739;SDS011;53653;52.188;8.602;2023-03-23T05:27:35;5.75;;;1.95;;
66739;SDS011;53653;52.188;8.602;2023-03-23T05:30:10;5.90;;;1.90;;
66739;SDS011;53653;52.188;8.602;2023-03-23T05:32:38;6.60;;;2.20;;
66739;SDS011;53653;52.188;8.602;2023-03-23T05:35:20;6.25;;;2.17;;
66739;SDS011;53653;52.188;8.602;2023-03-23T05:37:50;6.00;;;2.13;;
66739;SDS011;53653;52.188;8.602;2023-03-23T05:40:18;6.45;;;1.73;;
66739;SDS011;53653;52.188;8.602;2023-03-23T05:42:51;5.63;;;1.70;;
66739;SDS011;53653;52.188;8.602;2023-03-23T05:45:24;6.93;;;2.28;;
66739;SDS011;53653;52.188;8.602;2023-03-23T05:47:51;5.57;;;1.98;;
66739;SDS011;53653;52.188;8.602;2023-03-23T05:50:19;7.53;;;2.27;;
66739;SDS011;53653;52.188;8.602;2023-03-23T05:52:46;5.45;;;1.90;;
66739;SDS011;53653;52.188;8.602;2023-03-23T05:55:13;8.18;;;2.00;;
66739;SDS011;53653;52.188;8.602;2023-03-23T05:57:42;7.80;;;2.50;;
66739;SDS011;53653;52.188;8.602;2023-03-23T06:00:20;6.95;;;2.60;;
66739;SDS011;53653;52.188;8.602;2023-03-23T06:02:54;6.50;;;2.20;;
66739;SDS011;53653;52.188;8.602;2023-03-23T06:05:28;6.57;;;2.10;;
66739;SDS011;53653;52.188;8.602;2023-03-23T06:07:54;6.55;;;2.55;;
66739;SDS011;53653;52.188;8.602;2023-03-23T06:10:21;6.65;;;2.50;;
66739;SDS011;53653;52.188;8.602;2023-03-23T06:12:53;6.07;;;2.13;;
66739;SDS011;53653;52.188;8.602;2023-03-23T06:15:29;5.07;;;2.10;;
66739;SDS011;53653;52.188;8.602;2023-03-23T06:18:08;5.93;;;2.30;;
66739;SDS011;53653;52.188;8.602;2023-03-23T06:20:44;6.38;;;2.70;;
66739;SDS011;53653;52.188;8.602;2023-03-23T06:23:33;4.93;;;1.92;;
66739;SDS011;53653;52.188;8.602;2023-03-23T06:26:01;6.28;;;2.28;;
66739;SDS011;53653;52.188;8.602;2023-03-23T06:28:31;5.63;;;1.87;;
66739;SDS011;53653;52.188;8.602;2023-03-23T06:31:04;6.18;;;2.33;;
66739;SDS011;53653;52.188;8.602;2023-03-23T06:33:34;5.97;;;1.85;;
66739;SDS011;53653;52.188;8.602;2023-03-23T06:36:10;6.80;;;2.50;;
66739;SDS011;53653;52.188;8.602;2023-03-23T06:38:46;5.95;;;2.00;;
66739;SDS011;53653;52.188;8.602;2023-03-23T06:41:14;6.73;;;2.07;;
66739;SDS011;53653;52.188;8.602;2023-03-23T06:43:39;6.32;;;2.50;;
66739;SDS011;53653;52.188;8.602;2023-03-23T06:46:11;7.15;;;2.80;;
66739;SDS011;53653;52.188;8.602;2023-03-23T06:48:39;8.27;;;2.50;;
66739;SDS011;53653;52.188;8.602;2023-03-23T06:51:06;7.25;;;2.30;;
66739;SDS011;53653;52.188;8.602;2023-03-23T06:53:33;6.00;;;2.20;;
66739;SDS011;53653;52.188;8.602;2023-03-23T06:56:00;6.80;;;2.50;;
66739;SDS011;53653;52.188;8.602;2023-03-23T07:01:29;8.87;;;2.63;;
66739;SDS011;53653;52.188;8.602;2023-03-23T07:03:58;6.20;;;2.58;;
66739;SDS011;53653;52.188;8.602;2023-03-23T07:06:37;6.07;;;2.45;;
66739;SDS011;53653;52.188;8.602;2023-03-23T07:09:06;7.13;;;2.40;;
66739;SDS011;53653;52.188;8.602;2023-03-23T07:11:32;5.47;;;2.00;;
66739;SDS011;53653;52.188;8.602;2023-03-23T07:14:02;5.50;;;2.30;;
66739;SDS011;53653;52.188;8.602;2023-03-23T07:16:27;6.32;;;2.40;;
66739;SDS011;53653;52.188;8.602;2023-03-23T07:18:53;6.67;;;2.27;;
66739;SDS011;53653;52.188;8.602;2023-03-23T07:21:19;7.28;;;2.30;;
66739;SDS011;53653;52.188;8.602;2023-03-23T07:23:45;7.80;;;2.10;;
66739;SDS011;53653;52.188;8.602;2023-03-23T07:26:17;6.47;;;2.00;;
66739;SDS011;53653;52.188;8.602;2023-03-23T07:28:50;8.65;;;2.53;;
66739;SDS011;53653;52.188;8.602;2023-03-23T07:31:36;9.38;;;2.72;;
66739;SDS011;53653;52.188;8.602;2023-03-23T07:34:02;6.13;;;2.10;;
66739;SDS011;53653;52.188;8.602;2023-03-23T07:36:40;7.45;;;2.20;;
66739;SDS011;53653;52.188;8.602;2023-03-23T07:39:07;6.70;;;2.28;;
66739;SDS011;53653;52.188;8.602;2023-03-23T07:41:33;7.80;;;2.28;;
66739;SDS011;53653;52.188;8.602;2023-03-23T07:44:03;7.30;;;2.50;;
66739;SDS011;53653;52.188;8.602;2023-03-23T07:46:33;7.25;;;2.20;;
66739;SDS011;53653;52.188;8.602;2023-03-23T07:49:19;5.82;;;2.20;;
66739;SDS011;53653;52.188;8.602;2023-03-23T07:51:58;8.27;;;2.28;;
66739;SDS011;53653;52.188;8.602;2023-03-23T07:54:29;8.00;;;2.78;;
66739;SDS011;53653;52.188;8.602;2023-03-23T07:57:02;6.70;;;2.23;;
66739;SDS011;53653;52.188;8.602;2023-03-23T07:59:31;5.72;;;2.20;;
66739;SDS011;53653;52.188;8.602;2023-03-23T08:01:58;6.75;;;2.55;;
66739;SDS011;53653;52.188;8.602;2023-03-23T08:04:42;6.32;;;2.40;;
66739;SDS011;53653;52.188;8.602;2023-03-23T08:07:21;9.00;;;2.95;;
66739;SDS011;53653;52.188;8.602;2023-03-23T08:10:06;5.80;;;2.33;;
66739;SDS011;53653;52.188;8.602;2023-03-23T08:12:42;8.77;;;2.70;;
66739;SDS011;53653;52.188;8.602;2023-03-23T08:15:25;7.90;;;2.40;;
66739;SDS011;53653;52.188;8.602;2023-03-23T08:18:04;5.93;;;2.20;;
66739;SDS011;53653;52.188;8.602;2023-03-23T08:20:50;6.68;;;2.25;;
66739;SDS011;53653;52.188;8.602;2023-03-23T08:23:36;8.43;;;2.90;;
66739;SDS011;53653;52.188;8.602;2023-03-23T08:26:20;7.97;;;2.75;;
66739;SDS011;53653;52.188;8.602;2023-03-23T08:29:13;7.43;;;2.40;;
66739;SDS011;53653;52.188;8.602;2023-03-23T08:32:14;7.45;;;2.63;;
66739;SDS011;53653;52.188;8.602;2023-03-23T08:34:40;6.33;;;1.97;;
66739;SDS011;53653;52.188;8.602;2023-03-23T08:37:27;7.07;;;2.50;;
66739;SDS011;53653;52.188;8.602;2023-03-23T08:40:02;7.80;;;2.72;;
66739;SDS011;53653;52.188;8.602;2023-03-23T08:42:48;9.02;;;2.85;;
66739;SDS011;53653;52.188;8.602;2023-03-23T08:45:33;8.68;;;2.75;;
66739;SDS011;53653;52.188;8.602;2023-03-23T08:48:25;11.63;;;2.40;;
66739;SDS011;53653;52.188;8.602;2023-03-23T08:51:13;7.57;;;2.70;;
66739;SDS011;53653;52.188;8.602;2023-03-23T08:53:47;9.68;;;2.60;;
66739;SDS011;53653;52.188;8.602;2023-03-23T08:56:45;9.13;;;2.83;;
66739;SDS011;53653;52.188;8.602;2023-03-23T08:59:36;8.07;;;2.20;;
66739;SDS011;53653;52.188;8.602;2023-03-23T09:02:22;9.07;;;2.53;;
66739;SDS011;53653;52.188;8.602;2023-03-23T09:05:12;10.40;;;2.47;;
66739;SDS011;53653;52.188;8.602;2023-03-23T09:08:05;10.80;;;2.72;;
66739;SDS011;53653;52.188;8.602;2023-03-23T09:10:31;7.73;;;2.60;;
66739;SDS011;53653;52.188;8.602;2023-03-23T09:12:57;8.37;;;2.40;;
66739;SDS011;53653;52.188;8.602;2023-03-23T09:15:23;8.73;;;2.80;;
66739;SDS011;53653;52.188;8.602;2023-03-23T09:17:50;9.00;;;2.60;;
66739;SDS011;53653;52.188;8.602;2023-03-23T09:20:18;8.17;;;2.50;;
66739;SDS011;53653;52.188;8.602;2023-03-23T09:22:50;8.15;;;2.17;;
66739;SDS011;53653;52.188;8.602;2023-03-23T09:25:18;7.72;;;2.75;;
66739;SDS011;53653;52.188;8.602;2023-03-23T09:27:48;10.93;;;2.53;;
66739;SDS011;53653;52.188;8.602;2023-03-23T09:30:18;8.93;;;2.40;;
66739;SDS011;53653;52.188;8.602;2023-03-23T09:32:44;9.80;;;2.97;;
66739;SDS011;53653;52.188;8.602;2023-03-23T09:35:10;7.53;;;2.80;;
66739;SDS011;53653;52.188;8.602;2023-03-23T09:37:39;7.10;;;2.33;;
66739;SDS011;53653;52.188;8.602;2023-03-23T09:40:06;8.18;;;2.72;;
66739;SDS011;53653;52.188;8.602;2023-03-23T09:50:52;9.60;;;3.10;;
66739;SDS011;53653;52.188;8.602;2023-03-23T09:54:01;8.48;;;2.22;;
66739;SDS011;53653;52.188;8.602;2023-03-23T09:56:20;5.97;;;2.40;;
66739;SDS011;53653;52.188;8.602;2023-03-23T09:59:02;10.80;;;2.63;;
66739;SDS011;53653;52.188;8.602;2023-03-23T10:01:42;10.25;;;3.33;;
66739;SDS011;53653;52.188;8.602;2023-03-23T10:04:48;9.43;;;2.72;;
66739;SDS011;53653;52.188;8.602;2023-03-23T10:07:23;7.90;;;3.25;;
66739;SDS011;53653;52.188;8.602;2023-03-23T10:09:55;8.10;;;2.72;;
66739;SDS011;53653;52.188;8.602;2023-03-23T10:12:32;8.60;;;2.63;;
66739;SDS011;53653;52.188;8.602;2023-03-23T10:15:17;11.80;;;3.95;;
66739;SDS011;53653;52.188;8.602;2023-03-23T10:17:52;12.93;;;2.85;;
66739;SDS011;53653;52.188;8.602;2023-03-23T10:29:16;9.82;;;3.50;;
66739;SDS011;53653;52.188;8.602;2023-03-23T10:31:54;8.48;;;3.22;;
66739;SDS011;53653;52.188;8.602;2023-03-23T10:34:22;11.35;;;3.70;;
66739;SDS011;53653;52.188;8.602;2023-03-23T10:37:05;11.40;;;3.25;;
66739;SDS011;53653;52.188;8.602;2023-03-23T10:39:52;9.60;;;3.50;;
66739;SDS011;53653;52.188;8.602;2023-03-23T10:42:32;9.48;;;3.45;;
66739;SDS011;53653;52.188;8.602;2023-03-23T10:45:23;10.10;;;3.58;;
66739;SDS011;53653;52.188;8.602;2023-03-23T10:50:32;8.30;;;3.33;;
66739;SDS011;53653;52.188;8.602;2023-03-23T10:53:00;10.33;;;3.90;;
66739;SDS011;53653;52.188;8.602;2023-03-23T10:55:38;12.20;;;2.97;;
66739;SDS011;53653;52.188;8.602;2023-03-23T10:58:06;11.43;;;3.80;;
66739;SDS011;53653;52.188;8.602;2023-03-23T11:00:39;7.63;;;2.10;;
66739;SDS011;53653;52.188;8.602;2023-03-23T11:05:40;7.53;;;1.87;;
66739;SDS011;53653;52.188;8.602;2023-03-23T11:08:12;6.90;;;1.88;;
66739;SDS011;53653;52.188;8.602;2023-03-23T11:13:18;4.72;;;1.40;;
66739;SDS011;53653;52.188;8.602;2023-03-23T11:15:46;7.32;;;1.65;;
66739;SDS011;53653;52.188;8.602;2023-03-23T11:20:46;7.13;;;2.10;;
66739;SDS011;53653;52.188;8.602;2023-03-23T11:31:24;5.13;;;1.20;;
66739;SDS011;53653;52.188;8.602;2023-03-23T11:33:58;4.50;;;1.33;;
66739;SDS011;53653;52.188;8.602;2023-03-23T11:39:02;4.78;;;1.10;;
66739;SDS011;53653;52.188;8.602;2023-03-23T11:41:43;6.10;;;1.20;;
66739;SDS011;53653;52.188;8.602;2023-03-23T11:44:10;5.87;;;1.30;;
66739;SDS011;53653;52.188;8.602;2023-03-23T11:49:20;4.10;;;1.20;;
66739;SDS011;53653;52.188;8.602;2023-03-23T11:51:54;6.53;;;1.00;;
66739;SDS011;53653;52.188;8.602;2023-03-23T11:54:33;4.88;;;0.90;;
66739;SDS011;53653;52.188;8.602;2023-03-23T11:57:09;6.47;;;1.10;;
66739;SDS011;53653;52.188;8.602;2023-03-23T11:59:37;5.30;;;0.90;;
66739;SDS011;53653;52.188;8.602;2023-03-23T12:07:52;5.07;;;0.90;;
66739;SDS011;53653;52.188;8.602;2023-03-23T12:10:45;4.63;;;0.80;;
66739;SDS011;53653;52.188;8.602;2023-03-23T12:24:45;4.00;;;0.80;;
66739;SDS011;53653;52.188;8.602;2023-03-23T12:27:53;4.53;;;1.13;;
66739;SDS011;53653;52.188;8.602;2023-03-23T12:36:03;4.20;;;1.10;;
66739;SDS011;53653;52.188;8.602;2023-03-23T12:38:49;4.82;;;1.10;;
66739;SDS011;53653;52.188;8.602;2023-03-23T12:41:38;5.50;;;1.35;;
66739;SDS011;53653;52.188;8.602;2023-03-23T12:44:21;4.90;;;1.13;;
66739;SDS011;53653;52.188;8.602;2023-03-23T12:47:35;6.72;;;1.10;;
66739;SDS011;53653;52.188;8.602;2023-03-23T12:50:05;5.50;;;1.20;;
66739;SDS011;53653;52.188;8.602;2023-03-23T12:52:39;4.65;;;1.00;;
66739;SDS011;53653;52.188;8.602;2023-03-23T12:55:15;4.30;;;1.15;;
66739;SDS011;53653;52.188;8.602;2023-03-23T12:57:52;4.53;;;1.10;;
66739;SDS011;53653;52.188;8.602;2023-03-23T13:00:33;3.92;;;1.00;;
66739;SDS011;53653;52.188;8.602;2023-03-23T13:03:20;6.45;;;1.27;;
66739;SDS011;53653;52.188;8.602;2023-03-23T13:05:53;5.75;;;1.15;;
66739;SDS011;53653;52.188;8.602;2023-03-23T13:08:53;4.88;;;1.00;;
66739;SDS011;53653;52.188;8.602;2023-03-23T13:11:40;5.63;;;1.10;;
66739;SDS011;53653;52.188;8.602;2023-03-23T13:17:15;5.00;;;1.15;;
66739;SDS011;53653;52.188;8.602;2023-03-23T13:22:50;5.50;;;1.10;;
66739;SDS011;53653;52.188;8.602;2023-03-23T13:25:46;3.50;;;0.83;;
66739;SDS011;53653;52.188;8.602;2023-03-23T13:28:21;4.97;;;1.00;;
66739;SDS011;53653;52.188;8.602;2023-03-23T13:34:05;5.10;;;1.13;;
66739;SDS011;53653;52.188;8.602;2023-03-23T13:36:42;3.42;;;1.00;;
66739;SDS011;53653;52.188;8.602;2023-03-23T13:39:18;3.63;;;0.87;;
66739;SDS011;53653;52.188;8.602;2023-03-23T13:44:41;3.17;;;0.90;;
66739;SDS011;53653;52.188;8.602;2023-03-23T13:52:21;4.07;;;1.00;;
66739;SDS011;53653;52.188;8.602;2023-03-23T13:55:22;6.28;;;1.88;;
66739;SDS011;53653;52.188;8.602;2023-03-23T14:07:57;5.40;;;2.30;;
66739;SDS011;53653;52.188;8.602;2023-03-23T14:10:31;8.18;;;3.03;;
66739;SDS011;53653;52.188;8.602;2023-03-23T14:12:58;5.47;;;2.40;;
66739;SDS011;53653;52.188;8.602;2023-03-23T14:15:29;6.63;;;2.42;;
66739;SDS011;53653;52.188;8.602;2023-03-23T14:17:57;7.93;;;2.63;;
66739;SDS011;53653;52.188;8.602;2023-03-23T14:20:29;6.43;;;2.97;;
66739;SDS011;53653;52.188;8.602;2023-03-23T14:22:58;6.22;;;2.90;;
66739;SDS011;53653;52.188;8.602;2023-03-23T14:25:28;7.70;;;2.80;;
66739;SDS011;53653;52.188;8.602;2023-03-23T14:27:58;6.53;;;3.38;;
66739;SDS011;53653;52.188;8.602;2023-03-23T14:30:33;6.15;;;2.85;;
66739;SDS011;53653;52.188;8.602;2023-03-23T14:33:03;6.90;;;3.80;;
66739;SDS011;53653;52.188;8.602;2023-03-23T14:35:35;7.03;;;3.65;;
66739;SDS011;53653;52.188;8.602;2023-03-23T14:38:03;7.70;;;3.90;;
66739;SDS011;53653;52.188;8.602;2023-03-23T14:40:29;7.50;;;3.75;;
66739;SDS011;53653;52.188;8.602;2023-03-23T14:42:56;8.77;;;4.10;;
66739;SDS011;53653;52.188;8.602;2023-03-23T14:45:22;7.45;;;4.18;;
66739;SDS011;53653;52.188;8.602;2023-03-23T14:47:53;6.60;;;3.30;;
66739;SDS011;53653;52.188;8.602;2023-03-23T14:50:29;8.30;;;3.40;;
66739;SDS011;53653;52.188;8.602;2023-03-23T14:53:07;7.18;;;3.10;;
66739;SDS011;53653;52.188;8.602;2023-03-23T14:55:36;8.68;;;3.30;;
66739;SDS011;53653;52.188;8.602;2023-03-23T14:58:11;7.73;;;3.23;;
66739;SDS011;53653;52.188;8.602;2023-03-23T15:00:40;7.28;;;3.63;;
66739;SDS011;53653;52.188;8.602;2023-03-23T15:03:10;8.75;;;4.72;;
66739;SDS011;53653;52.188;8.602;2023-03-23T15:05:41;10.02;;;4.78;;
66739;SDS011;53653;52.188;8.602;2023-03-23T15:08:14;10.73;;;4.40;;
66739;SDS011;53653;52.188;8.602;2023-03-23T15:10:51;9.73;;;4.45;;
66739;SDS011;53653;52.188;8.602;2023-03-23T15:13:37;9.18;;;4.13;;
66739;SDS011;53653;52.188;8.602;2023-03-23T15:16:29;10.80;;;4.95;;
66739;SDS011;53653;52.188;8.602;2023-03-23T15:18:58;9.15;;;4.75;;
66739;SDS011;53653;52.188;8.602;2023-03-23T15:21:31;8.50;;;4.23;;
66739;SDS011;53653;52.188;8.602;2023-03-23T15:24:02;10.68;;;4.57;;
66739;SDS011;53653;52.188;8.602;2023-03-23T15:26:44;7.95;;;4.07;;
66739;SDS011;53653;52.188;8.602;2023-03-23T15:31:44;7.78;;;3.72;;
66739;SDS011;53653;52.188;8.602;2023-03-23T15:34:45;8.93;;;4.13;;
66739;SDS011;53653;52.188;8.602;2023-03-23T15:37:06;11.38;;;4.72;;
66739;SDS011;53653;52.188;8.602;2023-03-23T15:39:43;8.23;;;4.47;;
66739;SDS011;53653;52.188;8.602;2023-03-23T15:50:13;10.23;;;5.68;;
66739;SDS011;53653;52.188;8.602;2023-03-23T15:52:57;11.52;;;5.78;;
66739;SDS011;53653;52.188;8.602;2023-03-23T15:57:53;10.90;;;5.67;;
66739;SDS011;53653;52.188;8.602;2023-03-23T16:00:21;11.60;;;5.90;;
66739;SDS011;53653;52.188;8.602;2023-03-23T16:02:49;11.85;;;5.60;;
66739;SDS011;53653;52.188;8.602;2023-03-23T16:05:23;13.77;;;5.40;;
66739;SDS011;53653;52.188;8.602;2023-03-23T16:07:49;12.57;;;5.10;;
66739;SDS011;53653;52.188;8.602;2023-03-23T16:10:16;12.50;;;5.67;;
66739;SDS011;53653;52.188;8.602;2023-03-23T16:12:44;11.63;;;4.50;;
66739;SDS011;53653;52.188;8.602;2023-03-23T16:15:10;11.80;;;4.13;;
66739;SDS011;53653;52.188;8.602;2023-03-23T16:17:37;12.00;;;5.97;;
66739;SDS011;53653;52.188;8.602;2023-03-23T16:20:08;8.93;;;4.60;;
66739;SDS011;53653;52.188;8.602;2023-03-23T16:22:45;9.77;;;4.95;;
66739;SDS011;53653;52.188;8.602;2023-03-23T16:25:11;9.60;;;3.95;;
66739;SDS011;53653;52.188;8.602;2023-03-23T16:27:38;10.83;;;4.37;;
66739;SDS011;53653;52.188;8.602;2023-03-23T16:30:14;14.20;;;6.60;;
66739;SDS011;53653;52.188;8.602;2023-03-23T16:32:43;13.18;;;3.55;;
66739;SDS011;53653;52.188;8.602;2023-03-23T16:35:09;12.85;;;3.67;;
66739;SDS011;53653;52.188;8.602;2023-03-23T16:37:35;6.22;;;2.70;;
66739;SDS011;53653;52.188;8.602;2023-03-23T16:40:01;10.60;;;4.73;;
66739;SDS011;53653;52.188;8.602;2023-03-23T16:42:28;12.40;;;4.80;;
66739;SDS011;53653;52.188;8.602;2023-03-23T16:44:53;14.77;;;6.47;;
66739;SDS011;53653;52.188;8.602;2023-03-23T16:47:19;8.77;;;3.70;;
66739;SDS011;53653;52.188;8.602;2023-03-23T16:49:49;8.33;;;3.70;;
66739;SDS011;53653;52.188;8.602;2023-03-23T16:52:18;10.10;;;4.32;;
66739;SDS011;53653;52.188;8.602;2023-03-23T16:54:44;9.15;;;3.28;;
66739;SDS011;53653;52.188;8.602;2023-03-23T16:57:10;17.87;;;5.37;;
66739;SDS011;53653;52.188;8.602;2023-03-23T16:59:36;11.87;;;3.60;;
66739;SDS011;53653;52.188;8.602;2023-03-23T17:02:01;8.98;;;3.63;;
66739;SDS011;53653;52.188;8.602;2023-03-23T17:04:28;9.23;;;3.87;;
66739;SDS011;53653;52.188;8.602;2023-03-23T17:06:54;11.20;;;3.60;;
66739;SDS011;53653;52.188;8.602;2023-03-23T17:09:23;9.57;;;3.40;;
66739;SDS011;53653;52.188;8.602;2023-03-23T17:11:50;10.52;;;3.20;;
66739;SDS011;53653;52.188;8.602;2023-03-23T17:14:15;7.83;;;3.27;;
66739;SDS011;53653;52.188;8.602;2023-03-23T17:16:41;9.77;;;3.67;;
66739;SDS011;53653;52.188;8.602;2023-03-23T17:19:06;9.07;;;4.43;;
66739;SDS011;53653;52.188;8.602;2023-03-23T17:21:32;12.93;;;5.00;;
66739;SDS011;53653;52.188;8.602;2023-03-23T17:23:57;9.30;;;3.67;;
66739;SDS011;53653;52.188;8.602;2023-03-23T17:26:23;11.60;;;4.10;;